sensor_id;sensor_type;location;lat;lon;timestamp;P1;durP1;ratioP1;P2;durP2;ratioP2
43088;SDS011;28709;52.030;5.652;2022-09-09T00:04:42;5.57;;;1.63;;
43088;SDS011;28709;52.030;5.652;2022-09-09T00:10:03;4.20;;;2.10;;
43088;SDS011;28709;52.030;5.652;2022-09-09T00:15:05;2.88;;;1.92;;
43088;SDS011;28709;52.030;5.652;2022-09-09T00:17:57;3.75;;;1.48;;
43088;SDS011;28709;52.030;5.652;2022-09-09T00:23:05;2.55;;;2.08;;
43088;SDS011;28709;52.030;5.652;2022-09-09T00:28:20;3.55;;;2.13;;
43088;SDS011;28709;52.030;5.652;2022-09-09T00:30:52;4.35;;;2.22;;
43088;SDS011;28709;52.030;5.652;2022-09-09T00:33:19;8.73;;;3.33;;
43088;SDS011;28709;52.030;5.652;2022-09-09T00:35:49;4.22;;;2.50;;
43088;SDS011;28709;52.030;5.652;2022-09-09T00:38:28;3.95;;;2.78;;
43088;SDS011;28709;52.030;5.652;2022-09-09T00:43:36;4.22;;;2.80;;
43088;SDS011;28709;52.030;5.652;2022-09-09T00:49:14;4.63;;;2.60;;
43088;SDS011;28709;52.030;5.652;2022-09-09T00:51:58;3.40;;;2.22;;
43088;SDS011;28709;52.030;5.652;2022-09-09T00:57:28;3.53;;;2.40;;
43088;SDS011;28709;52.030;5.652;2022-09-09T01:05:30;3.45;;;2.28;;
43088;SDS011;28709;52.030;5.652;2022-09-09T01:08:11;5.18;;;2.55;;
43088;SDS011;28709;52.030;5.652;2022-09-09T01:10:50;2.25;;;2.00;;
43088;SDS011;28709;52.030;5.652;2022-09-09T01:13:28;5.70;;;2.33;;
43088;SDS011;28709;52.030;5.652;2022-09-09T01:16:00;4.05;;;1.98;;
43088;SDS011;28709;52.030;5.652;2022-09-09T01:18:31;2.20;;;1.88;;
43088;SDS011;28709;52.030;5.652;2022-09-09T01:26:18;1.90;;;1.70;;
43088;SDS011;28709;52.030;5.652;2022-09-09T01:28:48;5.18;;;2.30;;
43088;SDS011;28709;52.030;5.652;2022-09-09T01:31:28;3.85;;;1.98;;
43088;SDS011;28709;52.030;5.652;2022-09-09T01:33:57;4.22;;;2.17;;
43088;SDS011;28709;52.030;5.652;2022-09-09T01:36:29;2.92;;;2.05;;
43088;SDS011;28709;52.030;5.652;2022-09-09T01:39:00;3.28;;;1.60;;
43088;SDS011;28709;52.030;5.652;2022-09-09T01:41:26;3.97;;;2.53;;
43088;SDS011;28709;52.030;5.652;2022-09-09T01:43:53;5.10;;;2.65;;
43088;SDS011;28709;52.030;5.652;2022-09-09T01:46:21;6.43;;;2.40;;
43088;SDS011;28709;52.030;5.652;2022-09-09T01:48:48;4.68;;;2.03;;
43088;SDS011;28709;52.030;5.652;2022-09-09T01:51:18;3.35;;;2.35;;
43088;SDS011;28709;52.030;5.652;2022-09-09T01:53:44;6.75;;;2.72;;
43088;SDS011;28709;52.030;5.652;2022-09-09T02:04:41;3.38;;;1.80;;
43088;SDS011;28709;52.030;5.652;2022-09-09T02:07:55;6.93;;;2.47;;
43088;SDS011;28709;52.030;5.652;2022-09-09T02:09:58;4.90;;;2.47;;
43088;SDS011;28709;52.030;5.652;2022-09-09T02:12:30;3.03;;;1.90;;
43088;SDS011;28709;52.030;5.652;2022-09-09T02:14:59;2.72;;;2.28;;
43088;SDS011;28709;52.030;5.652;2022-09-09T02:17:31;4.10;;;2.13;;
43088;SDS011;28709;52.030;5.652;2022-09-09T02:20:08;3.85;;;2.50;;
43088;SDS011;28709;52.030;5.652;2022-09-09T02:22:38;3.40;;;2.03;;
43088;SDS011;28709;52.030;5.652;2022-09-09T02:25:07;4.22;;;1.98;;
43088;SDS011;28709;52.030;5.652;2022-09-09T02:27:35;4.63;;;1.98;;
43088;SDS011;28709;52.030;5.652;2022-09-09T02:30:02;4.35;;;1.95;;
43088;SDS011;28709;52.030;5.652;2022-09-09T02:32:29;2.83;;;1.60;;
43088;SDS011;28709;52.030;5.652;2022-09-09T02:35:02;2.95;;;1.83;;
43088;SDS011;28709;52.030;5.652;2022-09-09T02:37:40;3.83;;;1.95;;
43088;SDS011;28709;52.030;5.652;2022-09-09T02:40:09;1.75;;;1.38;;
43088;SDS011;28709;52.030;5.652;2022-09-09T02:42:44;1.65;;;1.45;;
43088;SDS011;28709;52.030;5.652;2022-09-09T02:45:12;3.72;;;1.85;;
43088;SDS011;28709;52.030;5.652;2022-09-09T02:47:50;5.07;;;1.98;;
43088;SDS011;28709;52.030;5.652;2022-09-09T02:50:33;4.43;;;1.83;;
43088;SDS011;28709;52.030;5.652;2022-09-09T02:53:16;3.28;;;1.73;;
43088;SDS011;28709;52.030;5.652;2022-09-09T02:58:21;3.83;;;1.60;;
43088;SDS011;28709;52.030;5.652;2022-09-09T03:00:48;3.47;;;2.22;;
43088;SDS011;28709;52.030;5.652;2022-09-09T03:03:15;2.40;;;2.10;;
43088;SDS011;28709;52.030;5.652;2022-09-09T03:05:43;2.42;;;1.92;;
43088;SDS011;28709;52.030;5.652;2022-09-09T03:08:09;3.65;;;1.92;;
43088;SDS011;28709;52.030;5.652;2022-09-09T03:10:35;4.38;;;2.45;;
43088;SDS011;28709;52.030;5.652;2022-09-09T03:13:02;1.50;;;1.35;;
43088;SDS011;28709;52.030;5.652;2022-09-09T03:15:30;2.35;;;1.55;;
43088;SDS011;28709;52.030;5.652;2022-09-09T03:17:57;5.07;;;2.20;;
43088;SDS011;28709;52.030;5.652;2022-09-09T03:20:24;4.15;;;2.45;;
43088;SDS011;28709;52.030;5.652;2022-09-09T03:22:51;2.67;;;1.90;;
43088;SDS011;28709;52.030;5.652;2022-09-09T03:25:17;3.42;;;2.05;;
43088;SDS011;28709;52.030;5.652;2022-09-09T03:27:43;3.65;;;2.25;;
43088;SDS011;28709;52.030;5.652;2022-09-09T03:30:09;2.72;;;2.00;;
43088;SDS011;28709;52.030;5.652;2022-09-09T03:32:35;2.75;;;2.03;;
43088;SDS011;28709;52.030;5.652;2022-09-09T03:35:00;3.40;;;2.15;;
43088;SDS011;28709;52.030;5.652;2022-09-09T03:37:26;7.38;;;3.17;;
43088;SDS011;28709;52.030;5.652;2022-09-09T03:39:52;6.40;;;2.38;;
43088;SDS011;28709;52.030;5.652;2022-09-09T03:42:19;5.30;;;2.58;;
43088;SDS011;28709;52.030;5.652;2022-09-09T03:44:46;5.70;;;1.88;;
43088;SDS011;28709;52.030;5.652;2022-09-09T03:47:15;4.57;;;2.17;;
43088;SDS011;28709;52.030;5.652;2022-09-09T03:49:42;3.58;;;2.53;;
43088;SDS011;28709;52.030;5.652;2022-09-09T03:52:08;3.45;;;2.60;;
43088;SDS011;28709;52.030;5.652;2022-09-09T03:54:34;3.78;;;2.40;;
43088;SDS011;28709;52.030;5.652;2022-09-09T03:57:00;5.65;;;2.42;;
43088;SDS011;28709;52.030;5.652;2022-09-09T03:59:26;9.18;;;2.60;;
43088;SDS011;28709;52.030;5.652;2022-09-09T04:01:53;4.05;;;2.25;;
43088;SDS011;28709;52.030;5.652;2022-09-09T04:04:19;4.85;;;2.20;;
43088;SDS011;28709;52.030;5.652;2022-09-09T04:06:45;3.40;;;2.42;;
43088;SDS011;28709;52.030;5.652;2022-09-09T04:09:13;5.93;;;2.20;;
43088;SDS011;28709;52.030;5.652;2022-09-09T04:11:39;5.53;;;2.17;;
43088;SDS011;28709;52.030;5.652;2022-09-09T04:14:04;11.40;;;2.28;;
43088;SDS011;28709;52.030;5.652;2022-09-09T04:16:31;3.65;;;2.10;;
43088;SDS011;28709;52.030;5.652;2022-09-09T04:18:58;4.38;;;2.80;;
43088;SDS011;28709;52.030;5.652;2022-09-09T04:21:25;3.90;;;2.10;;
43088;SDS011;28709;52.030;5.652;2022-09-09T04:23:51;6.38;;;2.53;;
43088;SDS011;28709;52.030;5.652;2022-09-09T04:26:16;4.38;;;2.10;;
43088;SDS011;28709;52.030;5.652;2022-09-09T04:28:42;2.75;;;1.98;;
43088;SDS011;28709;52.030;5.652;2022-09-09T04:31:14;4.70;;;2.25;;
43088;SDS011;28709;52.030;5.652;2022-09-09T04:33:42;8.02;;;2.22;;
43088;SDS011;28709;52.030;5.652;2022-09-09T04:36:08;5.45;;;1.77;;
43088;SDS011;28709;52.030;5.652;2022-09-09T04:38:34;2.20;;;1.80;;
43088;SDS011;28709;52.030;5.652;2022-09-09T04:41:00;4.85;;;1.88;;
43088;SDS011;28709;52.030;5.652;2022-09-09T04:43:26;4.40;;;1.83;;
43088;SDS011;28709;52.030;5.652;2022-09-09T04:45:55;4.55;;;1.60;;
43088;SDS011;28709;52.030;5.652;2022-09-09T04:48:21;2.00;;;1.40;;
43088;SDS011;28709;52.030;5.652;2022-09-09T04:50:57;5.05;;;1.88;;
43088;SDS011;28709;52.030;5.652;2022-09-09T04:53:25;5.13;;;1.85;;
43088;SDS011;28709;52.030;5.652;2022-09-09T04:56:04;5.13;;;2.33;;
43088;SDS011;28709;52.030;5.652;2022-09-09T04:58:37;3.53;;;1.88;;
43088;SDS011;28709;52.030;5.652;2022-09-09T05:01:10;2.83;;;1.90;;
43088;SDS011;28709;52.030;5.652;2022-09-09T05:03:46;2.75;;;1.95;;
43088;SDS011;28709;52.030;5.652;2022-09-09T05:06:16;7.38;;;2.50;;
43088;SDS011;28709;52.030;5.652;2022-09-09T05:08:43;6.40;;;2.10;;
43088;SDS011;28709;52.030;5.652;2022-09-09T05:11:20;4.40;;;1.92;;
43088;SDS011;28709;52.030;5.652;2022-09-09T05:13:49;4.10;;;1.80;;
43088;SDS011;28709;52.030;5.652;2022-09-09T05:16:16;3.83;;;1.83;;
43088;SDS011;28709;52.030;5.652;2022-09-09T05:18:42;5.15;;;2.00;;
43088;SDS011;28709;52.030;5.652;2022-09-09T05:21:09;7.88;;;1.52;;
43088;SDS011;28709;52.030;5.652;2022-09-09T05:23:35;4.63;;;2.30;;
43088;SDS011;28709;52.030;5.652;2022-09-09T05:26:02;4.43;;;1.85;;
43088;SDS011;28709;52.030;5.652;2022-09-09T05:28:29;5.60;;;2.22;;
43088;SDS011;28709;52.030;5.652;2022-09-09T05:30:56;6.30;;;2.03;;
43088;SDS011;28709;52.030;5.652;2022-09-09T05:33:26;2.97;;;1.58;;
43088;SDS011;28709;52.030;5.652;2022-09-09T05:35:56;3.70;;;1.70;;
43088;SDS011;28709;52.030;5.652;2022-09-09T05:38:26;4.05;;;1.83;;
43088;SDS011;28709;52.030;5.652;2022-09-09T05:40:52;3.75;;;2.22;;
43088;SDS011;28709;52.030;5.652;2022-09-09T05:43:21;8.70;;;2.75;;
43088;SDS011;28709;52.030;5.652;2022-09-09T05:45:47;6.20;;;1.98;;
43088;SDS011;28709;52.030;5.652;2022-09-09T05:48:14;4.15;;;1.73;;
43088;SDS011;28709;52.030;5.652;2022-09-09T05:50:42;2.58;;;1.55;;
43088;SDS011;28709;52.030;5.652;2022-09-09T05:53:10;5.70;;;1.90;;
43088;SDS011;28709;52.030;5.652;2022-09-09T05:55:35;9.95;;;2.38;;
43088;SDS011;28709;52.030;5.652;2022-09-09T05:58:01;6.60;;;2.00;;
43088;SDS011;28709;52.030;5.652;2022-09-09T06:00:27;5.28;;;1.67;;
43088;SDS011;28709;52.030;5.652;2022-09-09T06:02:54;5.40;;;2.20;;
43088;SDS011;28709;52.030;5.652;2022-09-09T06:05:20;6.53;;;2.00;;
43088;SDS011;28709;52.030;5.652;2022-09-09T06:07:47;4.47;;;1.90;;
43088;SDS011;28709;52.030;5.652;2022-09-09T06:10:16;5.43;;;1.60;;
43088;SDS011;28709;52.030;5.652;2022-09-09T06:12:42;9.00;;;2.70;;
43088;SDS011;28709;52.030;5.652;2022-09-09T06:15:08;7.30;;;1.90;;
43088;SDS011;28709;52.030;5.652;2022-09-09T06:17:34;5.53;;;1.50;;
43088;SDS011;28709;52.030;5.652;2022-09-09T06:19:59;3.78;;;1.40;;
43088;SDS011;28709;52.030;5.652;2022-09-09T06:22:25;5.45;;;1.70;;
43088;SDS011;28709;52.030;5.652;2022-09-09T06:24:51;9.35;;;1.70;;
43088;SDS011;28709;52.030;5.652;2022-09-09T06:27:18;5.68;;;1.90;;
43088;SDS011;28709;52.030;5.652;2022-09-09T06:29:44;8.40;;;2.33;;
43088;SDS011;28709;52.030;5.652;2022-09-09T06:32:09;2.53;;;1.60;;
43088;SDS011;28709;52.030;5.652;2022-09-09T06:34:35;4.57;;;2.00;;
43088;SDS011;28709;52.030;5.652;2022-09-09T06:37:01;7.13;;;1.63;;
43088;SDS011;28709;52.030;5.652;2022-09-09T06:39:27;7.60;;;2.42;;
43088;SDS011;28709;52.030;5.652;2022-09-09T06:41:53;7.18;;;2.08;;
43088;SDS011;28709;52.030;5.652;2022-09-09T06:44:19;3.78;;;1.80;;
43088;SDS011;28709;52.030;5.652;2022-09-09T06:46:45;5.28;;;1.83;;
43088;SDS011;28709;52.030;5.652;2022-09-09T06:49:13;7.53;;;1.67;;
43088;SDS011;28709;52.030;5.652;2022-09-09T06:51:38;8.02;;;1.70;;
43088;SDS011;28709;52.030;5.652;2022-09-09T06:54:07;3.85;;;1.20;;
43088;SDS011;28709;52.030;5.652;2022-09-09T06:56:35;6.15;;;1.60;;
43088;SDS011;28709;52.030;5.652;2022-09-09T06:59:05;2.67;;;1.40;;
43088;SDS011;28709;52.030;5.652;2022-09-09T07:01:35;6.97;;;1.48;;
43088;SDS011;28709;52.030;5.652;2022-09-09T07:04:02;3.40;;;1.13;;
43088;SDS011;28709;52.030;5.652;2022-09-09T07:06:36;7.28;;;2.08;;
43088;SDS011;28709;52.030;5.652;2022-09-09T07:09:05;3.80;;;1.40;;
43088;SDS011;28709;52.030;5.652;2022-09-09T07:11:34;10.02;;;2.22;;
43088;SDS011;28709;52.030;5.652;2022-09-09T07:14:03;5.95;;;1.42;;
43088;SDS011;28709;52.030;5.652;2022-09-09T07:16:29;7.45;;;1.80;;
43088;SDS011;28709;52.030;5.652;2022-09-09T07:18:56;7.35;;;1.58;;
43088;SDS011;28709;52.030;5.652;2022-09-09T07:21:25;8.10;;;1.95;;
43088;SDS011;28709;52.030;5.652;2022-09-09T07:23:52;9.90;;;1.50;;
43088;SDS011;28709;52.030;5.652;2022-09-09T07:26:20;8.65;;;1.98;;
43088;SDS011;28709;52.030;5.652;2022-09-09T07:28:47;5.03;;;1.70;;
43088;SDS011;28709;52.030;5.652;2022-09-09T07:31:17;7.63;;;1.45;;
43088;SDS011;28709;52.030;5.652;2022-09-09T07:33:45;8.38;;;1.77;;
43088;SDS011;28709;52.030;5.652;2022-09-09T07:36:13;4.68;;;1.33;;
43088;SDS011;28709;52.030;5.652;2022-09-09T07:38:44;7.32;;;2.10;;
43088;SDS011;28709;52.030;5.652;2022-09-09T07:41:12;9.65;;;1.80;;
43088;SDS011;28709;52.030;5.652;2022-09-09T07:43:40;9.35;;;1.90;;
43088;SDS011;28709;52.030;5.652;2022-09-09T07:46:07;6.10;;;1.80;;
43088;SDS011;28709;52.030;5.652;2022-09-09T07:48:33;8.55;;;1.80;;
43088;SDS011;28709;52.030;5.652;2022-09-09T07:51:10;10.50;;;2.50;;
43088;SDS011;28709;52.030;5.652;2022-09-09T07:53:40;3.97;;;1.10;;
43088;SDS011;28709;52.030;5.652;2022-09-09T07:56:09;6.93;;;1.70;;
43088;SDS011;28709;52.030;5.652;2022-09-09T07:58:38;11.45;;;1.45;;
43088;SDS011;28709;52.030;5.652;2022-09-09T08:01:08;9.65;;;1.58;;
43088;SDS011;28709;52.030;5.652;2022-09-09T08:03:36;4.97;;;1.45;;
43088;SDS011;28709;52.030;5.652;2022-09-09T08:06:03;8.00;;;1.50;;
43088;SDS011;28709;52.030;5.652;2022-09-09T08:08:32;5.03;;;2.10;;
43088;SDS011;28709;52.030;5.652;2022-09-09T08:11:31;4.57;;;1.48;;
43088;SDS011;28709;52.030;5.652;2022-09-09T08:13:51;8.10;;;1.65;;
43088;SDS011;28709;52.030;5.652;2022-09-09T08:16:27;13.73;;;2.53;;
43088;SDS011;28709;52.030;5.652;2022-09-09T08:18:55;6.28;;;1.70;;
43088;SDS011;28709;52.030;5.652;2022-09-09T08:21:22;7.28;;;1.58;;
43088;SDS011;28709;52.030;5.652;2022-09-09T08:23:50;4.57;;;1.75;;
43088;SDS011;28709;52.030;5.652;2022-09-09T08:26:19;3.50;;;1.45;;
43088;SDS011;28709;52.030;5.652;2022-09-09T08:28:53;6.43;;;1.98;;
43088;SDS011;28709;52.030;5.652;2022-09-09T08:33:49;9.77;;;1.50;;
43088;SDS011;28709;52.030;5.652;2022-09-09T08:36:17;8.13;;;1.77;;
43088;SDS011;28709;52.030;5.652;2022-09-09T08:38:47;3.88;;;1.23;;
43088;SDS011;28709;52.030;5.652;2022-09-09T08:50:13;10.57;;;1.95;;
43088;SDS011;28709;52.030;5.652;2022-09-09T08:58:16;11.27;;;1.40;;
43088;SDS011;28709;52.030;5.652;2022-09-09T09:03:17;6.22;;;1.60;;
43088;SDS011;28709;52.030;5.652;2022-09-09T09:11:26;13.25;;;1.33;;
43088;SDS011;28709;52.030;5.652;2022-09-09T09:18:59;6.35;;;1.30;;
43088;SDS011;28709;52.030;5.652;2022-09-09T09:24:18;13.68;;;1.45;;
43088;SDS011;28709;52.030;5.652;2022-09-09T09:27:11;8.07;;;1.58;;
43088;SDS011;28709;52.030;5.652;2022-09-09T09:29:43;4.90;;;1.15;;
43088;SDS011;28709;52.030;5.652;2022-09-09T09:32:11;7.07;;;1.20;;
43088;SDS011;28709;52.030;5.652;2022-09-09T09:34:48;5.07;;;1.30;;
43088;SDS011;28709;52.030;5.652;2022-09-09T09:37:23;4.13;;;1.23;;
43088;SDS011;28709;52.030;5.652;2022-09-09T09:39:56;9.32;;;1.35;;
43088;SDS011;28709;52.030;5.652;2022-09-09T09:42:35;12.45;;;2.90;;
43088;SDS011;28709;52.030;5.652;2022-09-09T09:45:14;10.23;;;1.27;;
43088;SDS011;28709;52.030;5.652;2022-09-09T09:47:57;5.93;;;1.00;;
43088;SDS011;28709;52.030;5.652;2022-09-09T09:50:27;7.93;;;2.05;;
43088;SDS011;28709;52.030;5.652;2022-09-09T09:53:36;6.43;;;1.00;;
43088;SDS011;28709;52.030;5.652;2022-09-09T09:56:00;4.65;;;1.35;;
43088;SDS011;28709;52.030;5.652;2022-09-09T09:58:32;8.05;;;1.55;;
43088;SDS011;28709;52.030;5.652;2022-09-09T10:01:20;6.63;;;1.52;;
43088;SDS011;28709;52.030;5.652;2022-09-09T10:03:50;3.88;;;1.05;;
43088;SDS011;28709;52.030;5.652;2022-09-09T10:06:17;5.82;;;1.63;;
43088;SDS011;28709;52.030;5.652;2022-09-09T10:08:53;7.07;;;1.50;;
43088;SDS011;28709;52.030;5.652;2022-09-09T10:16:55;7.80;;;1.50;;
43088;SDS011;28709;52.030;5.652;2022-09-09T10:19:33;4.70;;;1.08;;
43088;SDS011;28709;52.030;5.652;2022-09-09T10:30:14;5.28;;;1.17;;
43088;SDS011;28709;52.030;5.652;2022-09-09T10:32:49;7.50;;;1.63;;
43088;SDS011;28709;52.030;5.652;2022-09-09T10:35:39;6.28;;;1.10;;
43088;SDS011;28709;52.030;5.652;2022-09-09T10:44:16;7.53;;;1.25;;
43088;SDS011;28709;52.030;5.652;2022-09-09T10:49:58;5.13;;;1.40;;
43088;SDS011;28709;52.030;5.652;2022-09-09T10:56:09;5.25;;;1.50;;
43088;SDS011;28709;52.030;5.652;2022-09-09T10:58:32;4.65;;;1.30;;
43088;SDS011;28709;52.030;5.652;2022-09-09T11:06:43;10.13;;;1.85;;
43088;SDS011;28709;52.030;5.652;2022-09-09T11:09:14;7.75;;;1.48;;
43088;SDS011;28709;52.030;5.652;2022-09-09T11:11:44;5.60;;;1.40;;
43088;SDS011;28709;52.030;5.652;2022-09-09T11:16:58;7.05;;;1.75;;
43088;SDS011;28709;52.030;5.652;2022-09-09T11:19:36;7.50;;;1.95;;
43088;SDS011;28709;52.030;5.652;2022-09-09T11:35:40;8.85;;;1.95;;
43088;SDS011;28709;52.030;5.652;2022-09-09T11:40:56;7.38;;;1.98;;
43088;SDS011;28709;52.030;5.652;2022-09-09T11:43:41;9.00;;;1.95;;
43088;SDS011;28709;52.030;5.652;2022-09-09T11:46:13;6.22;;;1.67;;
43088;SDS011;28709;52.030;5.652;2022-09-09T11:48:45;8.82;;;1.98;;
43088;SDS011;28709;52.030;5.652;2022-09-09T11:53:50;7.20;;;1.40;;
43088;SDS011;28709;52.030;5.652;2022-09-09T11:56:24;5.93;;;1.50;;
43088;SDS011;28709;52.030;5.652;2022-09-09T12:01:37;4.63;;;1.27;;
43088;SDS011;28709;52.030;5.652;2022-09-09T12:12:23;4.38;;;1.30;;
43088;SDS011;28709;52.030;5.652;2022-09-09T12:17:37;8.50;;;1.50;;
43088;SDS011;28709;52.030;5.652;2022-09-09T12:20:25;4.60;;;1.08;;
43088;SDS011;28709;52.030;5.652;2022-09-09T12:28:46;3.63;;;1.15;;
43088;SDS011;28709;52.030;5.652;2022-09-09T12:31:33;3.88;;;1.17;;
43088;SDS011;28709;52.030;5.652;2022-09-09T12:37:12;6.22;;;1.55;;
43088;SDS011;28709;52.030;5.652;2022-09-09T12:40:15;7.93;;;1.58;;
43088;SDS011;28709;52.030;5.652;2022-09-09T12:42:43;3.95;;;1.20;;
43088;SDS011;28709;52.030;5.652;2022-09-09T12:45:19;8.93;;;1.77;;
43088;SDS011;28709;52.030;5.652;2022-09-09T12:50:17;3.55;;;1.90;;
43088;SDS011;28709;52.030;5.652;2022-09-09T12:52:47;4.32;;;1.25;;
43088;SDS011;28709;52.030;5.652;2022-09-09T12:55:19;6.82;;;2.00;;
43088;SDS011;28709;52.030;5.652;2022-09-09T12:57:50;4.38;;;1.20;;
43088;SDS011;28709;52.030;5.652;2022-09-09T13:00:21;4.13;;;1.25;;
43088;SDS011;28709;52.030;5.652;2022-09-09T13:05:26;6.03;;;1.40;;
43088;SDS011;28709;52.030;5.652;2022-09-09T13:08:01;4.28;;;1.40;;
43088;SDS011;28709;52.030;5.652;2022-09-09T13:10:33;3.42;;;1.65;;
43088;SDS011;28709;52.030;5.652;2022-09-09T13:13:04;4.60;;;1.30;;
43088;SDS011;28709;52.030;5.652;2022-09-09T13:15:39;2.15;;;0.95;;
43088;SDS011;28709;52.030;5.652;2022-09-09T13:18:06;7.40;;;1.50;;
43088;SDS011;28709;52.030;5.652;2022-09-09T13:20:36;6.32;;;1.27;;
43088;SDS011;28709;52.030;5.652;2022-09-09T13:23:02;3.83;;;1.17;;
43088;SDS011;28709;52.030;5.652;2022-09-09T13:25:28;2.85;;;1.10;;
43088;SDS011;28709;52.030;5.652;2022-09-09T13:28:04;3.42;;;1.02;;
43088;SDS011;28709;52.030;5.652;2022-09-09T13:30:34;4.60;;;1.50;;
43088;SDS011;28709;52.030;5.652;2022-09-09T13:35:34;4.28;;;1.10;;
43088;SDS011;28709;52.030;5.652;2022-09-09T13:38:12;3.33;;;1.30;;
43088;SDS011;28709;52.030;5.652;2022-09-09T13:40:52;2.40;;;0.85;;
43088;SDS011;28709;52.030;5.652;2022-09-09T13:43:34;5.65;;;1.83;;
43088;SDS011;28709;52.030;5.652;2022-09-09T13:46:03;3.25;;;1.25;;
43088;SDS011;28709;52.030;5.652;2022-09-09T13:48:31;4.38;;;1.27;;
43088;SDS011;28709;52.030;5.652;2022-09-09T13:51:01;4.60;;;1.10;;
43088;SDS011;28709;52.030;5.652;2022-09-09T13:53:30;3.55;;;0.88;;
43088;SDS011;28709;52.030;5.652;2022-09-09T13:55:56;5.55;;;1.10;;
43088;SDS011;28709;52.030;5.652;2022-09-09T13:58:23;11.60;;;1.23;;
43088;SDS011;28709;52.030;5.652;2022-09-09T14:00:50;2.67;;;1.23;;
43088;SDS011;28709;52.030;5.652;2022-09-09T14:03:17;6.80;;;1.30;;
43088;SDS011;28709;52.030;5.652;2022-09-09T14:05:43;4.90;;;1.13;;
43088;SDS011;28709;52.030;5.652;2022-09-09T14:08:12;2.45;;;0.80;;
43088;SDS011;28709;52.030;5.652;2022-09-09T14:10:43;4.60;;;1.30;;
43088;SDS011;28709;52.030;5.652;2022-09-09T14:13:10;7.68;;;1.65;;
43088;SDS011;28709;52.030;5.652;2022-09-09T14:15:37;7.05;;;1.60;;
43088;SDS011;28709;52.030;5.652;2022-09-09T14:18:03;5.45;;;1.17;;
43088;SDS011;28709;52.030;5.652;2022-09-09T14:20:29;3.45;;;1.02;;
43088;SDS011;28709;52.030;5.652;2022-09-09T14:22:54;3.50;;;0.80;;
43088;SDS011;28709;52.030;5.652;2022-09-09T14:25:23;4.63;;;1.38;;
43088;SDS011;28709;52.030;5.652;2022-09-09T14:27:49;5.32;;;1.60;;
43088;SDS011;28709;52.030;5.652;2022-09-09T14:30:16;3.83;;;1.20;;
43088;SDS011;28709;52.030;5.652;2022-09-09T14:32:42;6.13;;;1.20;;
43088;SDS011;28709;52.030;5.652;2022-09-09T14:35:07;5.30;;;1.40;;
43088;SDS011;28709;52.030;5.652;2022-09-09T14:37:33;4.60;;;1.00;;
43088;SDS011;28709;52.030;5.652;2022-09-09T14:39:59;5.03;;;1.35;;
43088;SDS011;28709;52.030;5.652;2022-09-09T14:42:25;4.80;;;1.38;;
43088;SDS011;28709;52.030;5.652;2022-09-09T14:44:51;2.50;;;0.80;;
43088;SDS011;28709;52.030;5.652;2022-09-09T14:47:17;4.00;;;1.13;;
43088;SDS011;28709;52.030;5.652;2022-09-09T14:49:43;2.65;;;1.23;;
43088;SDS011;28709;52.030;5.652;2022-09-09T14:52:09;4.85;;;1.20;;
43088;SDS011;28709;52.030;5.652;2022-09-09T14:54:35;3.22;;;1.10;;
43088;SDS011;28709;52.030;5.652;2022-09-09T14:57:00;3.30;;;0.95;;
43088;SDS011;28709;52.030;5.652;2022-09-09T14:59:27;3.28;;;1.35;;
43088;SDS011;28709;52.030;5.652;2022-09-09T15:01:52;6.38;;;1.60;;
43088;SDS011;28709;52.030;5.652;2022-09-09T15:04:18;4.63;;;1.77;;
43088;SDS011;28709;52.030;5.652;2022-09-09T15:06:44;4.22;;;1.63;;
43088;SDS011;28709;52.030;5.652;2022-09-09T15:09:13;4.95;;;0.98;;
43088;SDS011;28709;52.030;5.652;2022-09-09T15:11:39;6.85;;;1.52;;
43088;SDS011;28709;52.030;5.652;2022-09-09T15:14:06;6.63;;;1.77;;
43088;SDS011;28709;52.030;5.652;2022-09-09T15:16:33;3.03;;;1.73;;
43088;SDS011;28709;52.030;5.652;2022-09-09T15:18:59;4.32;;;1.30;;
43088;SDS011;28709;52.030;5.652;2022-09-09T15:21:30;3.25;;;1.20;;
43088;SDS011;28709;52.030;5.652;2022-09-09T15:23:58;4.10;;;1.52;;
43088;SDS011;28709;52.030;5.652;2022-09-09T15:26:24;6.80;;;1.23;;
43088;SDS011;28709;52.030;5.652;2022-09-09T15:28:52;3.85;;;1.48;;
43088;SDS011;28709;52.030;5.652;2022-09-09T15:31:23;3.05;;;1.17;;
43088;SDS011;28709;52.030;5.652;2022-09-09T15:33:55;3.70;;;1.30;;
43088;SDS011;28709;52.030;5.652;2022-09-09T15:38:59;4.45;;;1.95;;
43088;SDS011;28709;52.030;5.652;2022-09-09T15:41:25;4.85;;;1.08;;
43088;SDS011;28709;52.030;5.652;2022-09-09T15:43:53;6.20;;;1.40;;
43088;SDS011;28709;52.030;5.652;2022-09-09T15:46:24;2.83;;;1.15;;
43088;SDS011;28709;52.030;5.652;2022-09-09T15:48:58;2.13;;;0.70;;
43088;SDS011;28709;52.030;5.652;2022-09-09T15:51:28;4.00;;;1.35;;
43088;SDS011;28709;52.030;5.652;2022-09-09T15:53:55;3.83;;;1.20;;
43088;SDS011;28709;52.030;5.652;2022-09-09T15:56:22;2.45;;;1.10;;
43088;SDS011;28709;52.030;5.652;2022-09-09T15:58:49;2.20;;;1.20;;
43088;SDS011;28709;52.030;5.652;2022-09-09T16:01:15;5.38;;;1.50;;
43088;SDS011;28709;52.030;5.652;2022-09-09T16:03:42;3.47;;;1.15;;
43088;SDS011;28709;52.030;5.652;2022-09-09T16:06:10;2.20;;;0.90;;
43088;SDS011;28709;52.030;5.652;2022-09-09T16:08:36;1.90;;;1.10;;
43088;SDS011;28709;52.030;5.652;2022-09-09T16:11:06;2.95;;;0.88;;
43088;SDS011;28709;52.030;5.652;2022-09-09T16:13:38;1.77;;;0.82;;
43088;SDS011;28709;52.030;5.652;2022-09-09T16:16:05;3.47;;;1.30;;
43088;SDS011;28709;52.030;5.652;2022-09-09T16:18:39;0.90;;;0.63;;
43088;SDS011;28709;52.030;5.652;2022-09-09T16:21:13;3.47;;;1.23;;
43088;SDS011;28709;52.030;5.652;2022-09-09T16:23:41;2.53;;;0.80;;
43088;SDS011;28709;52.030;5.652;2022-09-09T16:26:08;1.42;;;0.60;;
43088;SDS011;28709;52.030;5.652;2022-09-09T16:28:36;2.28;;;1.13;;
43088;SDS011;28709;52.030;5.652;2022-09-09T16:31:04;1.88;;;0.65;;
43088;SDS011;28709;52.030;5.652;2022-09-09T16:33:31;1.70;;;0.80;;
43088;SDS011;28709;52.030;5.652;2022-09-09T16:35:56;1.67;;;0.70;;
43088;SDS011;28709;52.030;5.652;2022-09-09T16:38:22;1.38;;;0.70;;
43088;SDS011;28709;52.030;5.652;2022-09-09T16:40:48;5.97;;;1.33;;
43088;SDS011;28709;52.030;5.652;2022-09-09T16:43:14;1.60;;;0.70;;
43088;SDS011;28709;52.030;5.652;2022-09-09T16:45:43;2.17;;;0.80;;
43088;SDS011;28709;52.030;5.652;2022-09-09T16:48:10;2.92;;;0.93;;
43088;SDS011;28709;52.030;5.652;2022-09-09T16:50:36;1.48;;;0.70;;
43088;SDS011;28709;52.030;5.652;2022-09-09T16:53:02;2.05;;;0.93;;
43088;SDS011;28709;52.030;5.652;2022-09-09T16:55:36;1.52;;;0.73;;
43088;SDS011;28709;52.030;5.652;2022-09-09T16:58:03;2.35;;;0.80;;
43088;SDS011;28709;52.030;5.652;2022-09-09T17:00:28;2.85;;;0.80;;
43088;SDS011;28709;52.030;5.652;2022-09-09T17:02:54;1.58;;;0.73;;
43088;SDS011;28709;52.030;5.652;2022-09-09T17:05:20;4.75;;;0.75;;
43088;SDS011;28709;52.030;5.652;2022-09-09T17:07:45;3.15;;;1.00;;
43088;SDS011;28709;52.030;5.652;2022-09-09T17:10:11;3.88;;;1.30;;
43088;SDS011;28709;52.030;5.652;2022-09-09T17:12:36;7.32;;;1.30;;
43088;SDS011;28709;52.030;5.652;2022-09-09T17:15:02;3.08;;;1.48;;
43088;SDS011;28709;52.030;5.652;2022-09-09T17:17:28;1.48;;;0.93;;
43088;SDS011;28709;52.030;5.652;2022-09-09T17:19:54;5.30;;;0.80;;
43088;SDS011;28709;52.030;5.652;2022-09-09T17:22:20;1.83;;;0.82;;
43088;SDS011;28709;52.030;5.652;2022-09-09T17:24:46;5.68;;;1.00;;
43088;SDS011;28709;52.030;5.652;2022-09-09T17:27:12;1.98;;;0.82;;
43088;SDS011;28709;52.030;5.652;2022-09-09T17:29:38;4.38;;;1.10;;
43088;SDS011;28709;52.030;5.652;2022-09-09T17:32:04;1.50;;;1.20;;
43088;SDS011;28709;52.030;5.652;2022-09-09T17:34:32;2.60;;;1.33;;
43088;SDS011;28709;52.030;5.652;2022-09-09T17:36:59;2.33;;;1.30;;
43088;SDS011;28709;52.030;5.652;2022-09-09T17:39:24;3.70;;;1.48;;
43088;SDS011;28709;52.030;5.652;2022-09-09T17:41:50;3.83;;;1.60;;
43088;SDS011;28709;52.030;5.652;2022-09-09T17:44:17;2.70;;;1.75;;
43088;SDS011;28709;52.030;5.652;2022-09-09T17:46:44;3.92;;;1.70;;